Time;durP1;ratioP1;P1;durP2;ratioP2;P2;SDS_P1;SDS_P2;PMS_P1;PMS_P2;Temp;Humidity;BMP_temperature;BMP_pressure;BME280_temperature;BME280_humidity;BME280_pressure;Samples;Min_cycle;Max_cycle;Signal;HPM_P1;HPM_P2
2021/03/18 00:01:37;;;;;;;23.60;15.50;;;;;;;1.27;74.57;99108.02;2178847;81;21130;-79
2021/03/18 00:04:38;;;;;;;24.30;14.10;;;;;;;1.28;74.88;99112.75;2178761;81;21468;-79
2021/03/18 00:07:39;;;;;;;20.87;13.40;;;;;;;1.29;74.99;99113.23;2179270;81;21137;-78
2021/03/18 00:10:40;;;;;;;24.47;13.13;;;;;;;1.27;75.43;99111.87;2179186;81;21130;-79
2021/03/18 00:13:41;;;;;;;24.30;12.90;;;;;;;1.26;75.14;99117.81;2179225;81;21146;-78
2021/03/18 00:16:42;;;;;;;22.53;13.53;;;;;;;1.27;75.35;99117.41;2178168;81;21396;-79
2021/03/18 00:19:43;;;;;;;18.70;12.37;;;;;;;1.27;75.27;99113.55;2178570;81;21296;-79
2021/03/18 00:22:44;;;;;;;19.67;13.13;;;;;;;1.27;75.50;99105.84;2179013;81;21142;-79
2021/03/18 00:25:45;;;;;;;19.10;12.60;;;;;;;1.26;75.18;99108.81;2178970;82;21171;-78
2021/03/18 00:28:47;;;;;;;21.77;13.80;;;;;;;1.27;75.54;99110.98;2178532;81;21105;-78
2021/03/18 00:31:48;;;;;;;21.43;13.30;;;;;;;1.27;75.61;99111.87;2178556;81;21434;-78
2021/03/18 00:34:49;;;;;;;21.97;13.07;;;;;;;1.25;75.56;99110.02;2178213;82;21269;-79
2021/03/18 00:37:50;;;;;;;20.53;12.70;;;;;;;1.27;75.42;99109.70;2177542;81;21117;-78
2021/03/18 00:40:53;;;;;;;22.20;13.57;;;;;;;1.28;75.54;99105.03;2177974;82;22095;-78
2021/03/18 00:43:54;;;;;;;20.70;12.87;;;;;;;1.27;75.74;99105.44;2178419;81;21466;-79
2021/03/18 00:46:55;;;;;;;23.30;13.77;;;;;;;1.25;75.62;99103.19;2178491;81;21126;-78
2021/03/18 00:49:56;;;;;;;23.50;14.20;;;;;;;1.25;75.95;99104.88;2177740;81;21160;-78
2021/03/18 00:52:57;;;;;;;23.67;13.50;;;;;;;1.23;76.04;99102.63;2178015;81;21133;-79
2021/03/18 00:55:58;;;;;;;25.40;13.73;;;;;;;1.19;76.11;99100.30;2178296;81;21137;-79
2021/03/18 00:58:59;;;;;;;20.53;13.17;;;;;;;1.19;76.36;99101.98;2177943;81;21166;-78
2021/03/18 01:02:00;;;;;;;25.43;12.70;;;;;;;1.15;76.42;99099.66;2178216;81;21484;-77
2021/03/18 01:05:01;;;;;;;19.30;12.03;;;;;;;1.13;76.18;99096.13;2178965;81;21177;-78
2021/03/18 01:08:03;;;;;;;22.30;13.40;;;;;;;1.11;76.53;99095.56;2178892;81;21145;-79
2021/03/18 01:11:04;;;;;;;28.27;12.17;;;;;;;1.09;76.49;99087.77;2178892;81;21102;-79
2021/03/18 01:14:06;;;;;;;20.17;12.70;;;;;;;1.07;76.67;99089.37;2179257;81;21138;-79
2021/03/18 01:17:07;;;;;;;18.43;11.67;;;;;;;1.04;76.98;99089.61;2178791;81;21158;-79
2021/03/18 01:20:08;;;;;;;19.10;12.40;;;;;;;1.01;76.50;99090.73;2178776;81;21400;-79
2021/03/18 01:23:09;;;;;;;20.90;12.77;;;;;;;1.01;76.60;99090.33;2178752;81;21125;-78
2021/03/18 01:26:10;;;;;;;21.07;11.83;;;;;;;1.00;76.55;99093.70;2177951;81;21690;-78
2021/03/18 01:29:11;;;;;;;18.23;11.37;;;;;;;0.98;76.09;99091.86;2178161;81;21129;-78
2021/03/18 01:32:12;;;;;;;17.77;11.13;;;;;;;0.96;76.02;99094.34;2178093;81;21268;-78
2021/03/18 01:35:13;;;;;;;17.27;11.47;;;;;;;0.95;76.13;99099.00;2178285;81;21408;-78
2021/03/18 01:38:14;;;;;;;20.13;11.80;;;;;;;0.93;75.99;99087.76;2178618;81;21575;-79
2021/03/18 01:41:15;;;;;;;16.63;11.07;;;;;;;0.91;75.70;99088.08;2178562;81;21138;-80
2021/03/18 01:44:16;;;;;;;18.60;10.33;;;;;;;0.89;75.73;99095.70;2178915;81;21137;-79
2021/03/18 01:47:17;;;;;;;21.57;10.97;;;;;;;0.86;75.03;99091.66;2179078;81;21154;-79
2021/03/18 01:50:18;;;;;;;16.20;9.93;;;;;;;0.82;75.05;99086.27;2175171;81;21191;-79
2021/03/18 01:53:19;;;;;;;17.13;10.57;;;;;;;0.80;74.57;99082.33;2162222;82;21142;-80
2021/03/18 01:56:20;;;;;;;19.87;11.60;;;;;;;0.77;74.53;99080.00;2161627;82;21555;-78
2021/03/18 01:59:21;;;;;;;16.70;9.87;;;;;;;0.73;74.33;99083.20;2161920;82;21313;-79
2021/03/18 02:02:22;;;;;;;18.80;9.87;;;;;;;0.70;74.44;99081.35;2161080;82;21265;-79
2021/03/18 02:05:23;;;;;;;16.27;10.90;;;;;;;0.66;74.40;99078.53;2160963;82;21249;-79
2021/03/18 02:08:25;;;;;;;18.00;9.87;;;;;;;0.63;74.55;99082.70;2160724;82;21757;-79
2021/03/18 02:11:28;;;;;;;17.73;10.60;;;;;;;0.61;74.58;99097.55;2160798;82;21575;-79
2021/03/18 02:14:29;;;;;;;19.83;10.00;;;;;;;0.55;74.84;99093.36;2161565;82;21261;-79
2021/03/18 02:17:30;;;;;;;14.27;8.57;;;;;;;0.49;74.30;99100.34;2161966;82;21123;-79
2021/03/18 02:20:31;;;;;;;14.83;8.40;;;;;;;0.43;73.95;99097.43;2162097;82;21150;-80
2021/03/18 02:23:32;;;;;;;18.63;9.20;;;;;;;0.39;73.59;99113.47;2161876;82;21249;-79
2021/03/18 02:26:33;;;;;;;15.43;8.60;;;;;;;0.32;73.43;99094.66;2162242;82;21272;-79
2021/03/18 02:29:36;;;;;;;15.03;8.83;;;;;;;0.26;73.49;99104.59;2161357;82;21272;-79
2021/03/18 02:32:37;;;;;;;12.60;8.03;;;;;;;0.18;73.59;99108.02;2160940;82;21254;-79
2021/03/18 02:35:38;;;;;;;12.80;7.80;;;;;;;0.10;72.92;99110.55;2160958;82;21265;-78
2021/03/18 02:38:41;;;;;;;14.03;7.30;;;;;;;0.01;71.92;99111.30;2161214;82;21166;-79
2021/03/18 02:41:42;;;;;;;12.50;7.50;;;;;;;-0.11;71.27;99115.30;2161669;82;21142;-79
2021/03/18 02:44:43;;;;;;;10.07;6.70;;;;;;;-0.23;71.41;99114.59;2161867;82;21425;-79
2021/03/18 02:47:46;;;;;;;12.90;7.30;;;;;;;-0.32;71.50;99116.63;2161857;82;21238;-78
2021/03/18 02:50:47;;;;;;;18.17;7.93;;;;;;;-0.42;71.93;99119.45;2167101;82;21162;-80
2021/03/18 02:53:48;;;;;;;11.77;7.10;;;;;;;-0.50;72.36;99136.06;2180269;81;21137;-79
2021/03/18 02:56:49;;;;;;;15.50;8.63;;;;;;;-0.61;72.32;99136.70;2179770;81;21134;-81
2021/03/18 02:59:50;;;;;;;13.63;8.47;;;;;;;-0.71;72.48;99127.57;2180425;81;21173;-81
2021/03/18 03:02:52;;;;;;;17.63;8.23;;;;;;;-0.78;72.46;99136.97;2180209;81;21126;-79
2021/03/18 03:05:53;;;;;;;18.17;8.40;;;;;;;-0.83;72.54;99129.80;2179813;81;21150;-79
2021/03/18 03:08:54;;;;;;;15.67;8.80;;;;;;;-0.88;72.58;99131.16;2179668;81;21121;-79
2021/03/18 03:11:55;;;;;;;13.33;7.53;;;;;;;-0.92;72.88;99139.05;2179443;81;21110;-79
2021/03/18 03:18:15;;;;;;;11.73;7.17;;;;;;;-0.92;72.91;99132.65;2211960;79;22784;-82
2021/03/18 03:21:17;;;;;;;14.23;7.73;;;;;;;-1.02;73.02;99139.28;2179591;81;21240;-81
2021/03/18 03:24:18;;;;;;;15.07;7.90;;;;;;;-1.05;73.01;99138.70;2179317;82;21102;-82
2021/03/18 03:27:19;;;;;;;17.57;7.60;;;;;;;-1.09;73.07;99140.98;2179032;82;21138;-81
2021/03/18 03:30:20;;;;;;;15.57;7.83;;;;;;;-1.14;73.02;99138.13;2179309;82;21110;-82
2021/03/18 03:33:21;;;;;;;18.87;7.57;;;;;;;-1.18;73.06;99137.45;2178993;82;21399;-81
2021/03/18 03:36:22;;;;;;;15.13;7.50;;;;;;;-1.21;73.14;99138.55;2178579;82;21162;-80
2021/03/18 03:39:25;;;;;;;15.17;8.33;;;;;;;-1.23;73.08;99135.39;2178671;82;21149;-81
2021/03/18 03:42:26;;;;;;;17.97;7.93;;;;;;;-1.24;73.34;99140.91;2178708;82;21488;-80
2021/03/18 03:45:27;;;;;;;14.30;7.80;;;;;;;-1.26;73.27;99140.33;2178743;82;21133;-80
2021/03/18 03:48:28;;;;;;;14.20;7.30;;;;;;;-1.27;73.23;99141.12;2178926;82;21141;-81
2021/03/18 03:51:29;;;;;;;14.27;7.70;;;;;;;-1.29;73.30;99139.73;2178974;82;21145;-79
2021/03/18 03:54:30;;;;;;;11.47;7.07;;;;;;;-1.32;73.47;99143.39;2178973;82;21161;-81
2021/03/18 03:57:31;;;;;;;10.70;7.20;;;;;;;-1.36;73.51;99145.27;2179356;81;21180;-81
2021/03/18 04:00:32;;;;;;;10.07;6.57;;;;;;;-1.41;73.48;99149.22;2179243;82;21153;-81
2021/03/18 04:03:33;;;;;;;14.30;7.60;;;;;;;-1.44;73.50;99146.46;2179573;82;21136;-81
2021/03/18 04:06:34;;;;;;;13.23;7.33;;;;;;;-1.49;73.55;99146.17;2179375;82;21439;-81
2021/03/18 04:09:35;;;;;;;14.77;7.23;;;;;;;-1.53;73.75;99145.88;2178688;81;21825;-82
2021/03/18 04:12:37;;;;;;;10.83;6.73;;;;;;;-1.56;73.75;99148.24;2178321;82;21102;-82
2021/03/18 04:15:38;;;;;;;14.30;7.70;;;;;;;-1.59;73.75;99147.66;2177778;81;21161;-81
2021/03/18 04:18:39;;;;;;;12.57;7.90;;;;;;;-1.62;73.76;99153.86;2178789;81;21114;-80
2021/03/18 04:21:40;;;;;;;12.57;6.73;;;;;;;-1.67;73.73;99154.84;2179029;81;21169;-80
2021/03/18 04:24:41;;;;;;;11.10;6.83;;;;;;;-1.71;73.66;99161.83;2178876;81;21146;-80
2021/03/18 04:27:42;;;;;;;12.57;7.87;;;;;;;-1.75;73.82;99156.38;2179292;81;21377;-80
2021/03/18 04:30:43;;;;;;;14.27;7.47;;;;;;;-1.77;73.93;99150.28;2178516;81;21675;-80
2021/03/18 04:33:44;;;;;;;17.27;7.63;;;;;;;-1.80;74.06;99153.92;2179307;81;21260;-80
2021/03/18 04:36:45;;;;;;;14.33;7.77;;;;;;;-1.83;74.21;99151.16;2178203;81;21165;-77
2021/03/18 04:39:46;;;;;;;13.80;8.00;;;;;;;-1.85;74.37;99155.30;2177843;82;21276;-80
2021/03/18 04:42:48;;;;;;;16.53;7.77;;;;;;;-1.86;74.29;99158.25;2177722;82;21256;-78
2021/03/18 04:45:49;;;;;;;16.73;8.73;;;;;;;-1.85;74.28;99159.13;2176952;82;21267;-80
2021/03/18 04:48:50;;;;;;;18.67;9.73;;;;;;;-1.82;74.31;99164.45;2175830;81;21117;-78
2021/03/18 04:51:51;;;;;;;14.33;8.03;;;;;;;-1.80;74.53;99159.04;2175446;81;21264;-79
2021/03/18 04:54:52;;;;;;;14.97;7.63;;;;;;;-1.75;74.63;99162.39;2175403;81;21150;-78
2021/03/18 04:57:53;;;;;;;12.27;7.57;;;;;;;-1.67;74.52;99162.91;2174759;81;21284;-80
2021/03/18 05:00:55;;;;;;;34.60;12.57;;;;;;;-1.59;74.56;99168.52;2176038;81;21142;-80
2021/03/18 05:03:56;;;;;;;22.53;10.40;;;;;;;-1.51;74.88;99164.78;2174526;82;21244;-80
2021/03/18 05:06:57;;;;;;;20.67;10.80;;;;;;;-1.48;75.18;99163.30;2175753;82;21141;-80
2021/03/18 05:09:58;;;;;;;21.73;11.43;;;;;;;-1.48;75.25;99173.55;2177010;82;21288;-77
2021/03/18 05:12:59;;;;;;;19.53;10.40;;;;;;;-1.50;75.24;99166.55;2176179;82;21146;-81
2021/03/18 05:16:03;;;;;;;17.97;9.40;;;;;;;-1.52;75.30;99168.13;2176482;81;21166;-77
2021/03/18 05:19:03;;;;;;;17.33;10.40;;;;;;;-1.52;75.13;99168.13;2176481;81;21292;-79
2021/03/18 05:22:04;;;;;;;16.70;11.03;;;;;;;-1.52;75.05;99161.34;2176178;82;21642;-80
2021/03/18 05:25:05;;;;;;;25.03;12.00;;;;;;;-1.51;75.11;99168.23;2175297;82;21272;-79
2021/03/18 05:28:06;;;;;;;24.57;13.33;;;;;;;-1.50;75.22;99175.12;2175496;82;21133;-80
2021/03/18 05:31:07;;;;;;;18.97;11.07;;;;;;;-1.47;74.86;99175.31;2175490;82;21260;-78
2021/03/18 05:34:10;;;;;;;16.60;10.97;;;;;;;-1.44;74.74;99172.06;2175181;82;21245;-79
2021/03/18 05:37:11;;;;;;;21.93;14.50;;;;;;;-1.37;74.62;99181.52;2175149;82;21283;-78
2021/03/18 05:40:13;;;;;;;19.40;11.73;;;;;;;-1.26;74.65;99183.47;2175645;82;21570;-79
2021/03/18 05:43:14;;;;;;;19.30;12.70;;;;;;;-1.18;74.51;99186.52;2176287;82;21106;-79
2021/03/18 05:46:16;;;;;;;36.13;16.70;;;;;;;-1.11;74.29;99179.70;2175615;82;21292;-80
2021/03/18 05:49:17;;;;;;;16.93;12.70;;;;;;;-1.01;74.22;99187.17;2176453;82;21265;-78
2021/03/18 05:52:18;;;;;;;49.53;31.07;;;;;;;-0.92;73.95;99184.30;2175729;82;21459;-79
2021/03/18 05:55:19;;;;;;;19.30;12.23;;;;;;;-0.85;73.95;99183.52;2174533;82;21265;-79
2021/03/18 05:58:20;;;;;;;16.07;11.20;;;;;;;-0.77;73.80;99184.87;2175421;82;21138;-80
2021/03/18 06:01:21;;;;;;;16.73;12.97;;;;;;;-0.70;73.59;99188.70;2175624;82;21249;-79
2021/03/18 06:04:22;;;;;;;18.07;11.17;;;;;;;-0.60;73.42;99182.06;2175209;82;21126;-80
2021/03/18 06:07:23;;;;;;;23.47;12.53;;;;;;;-0.42;73.23;99168.17;2175757;82;21249;-81
2021/03/18 06:10:24;;;;;;;15.27;11.00;;;;;;;-0.23;72.85;99176.56;2176190;82;21838;-80
2021/03/18 06:13:25;;;;;;;15.03;9.80;;;;;;;-0.05;72.65;99173.39;2176185;82;21264;-80
2021/03/18 06:16:26;;;;;;;20.53;12.03;;;;;;;0.12;72.03;99178.26;2175232;81;21284;-80
2021/03/18 06:19:27;;;;;;;25.67;13.83;;;;;;;0.19;71.81;99187.20;2175939;82;21141;-80
2021/03/18 06:22:28;;;;;;;18.50;12.43;;;;;;;0.18;71.61;99187.59;2175345;82;21257;-79
2021/03/18 06:25:30;;;;;;;32.83;14.60;;;;;;;0.14;71.75;99189.50;2175054;82;21381;-78
2021/03/18 06:28:32;;;;;;;18.43;10.93;;;;;;;0.09;71.61;99198.62;2175819;82;21268;-78
2021/03/18 06:31:33;;;;;;;33.47;14.30;;;;;;;0.06;71.66;99202.69;2175639;82;21141;-80
2021/03/18 06:34:34;;;;;;;24.77;13.37;;;;;;;0.04;72.07;99211.58;2174563;82;21272;-80
2021/03/18 06:37:35;;;;;;;14.83;11.83;;;;;;;0.02;72.22;99205.88;2175168;82;21149;-79
2021/03/18 06:40:37;;;;;;;15.93;11.77;;;;;;;-0.01;72.14;99203.97;2175459;82;21137;-79
2021/03/18 06:43:38;;;;;;;31.10;11.80;;;;;;;-0.06;72.27;99203.70;2174936;82;21715;-79
2021/03/18 06:46:39;;;;;;;13.00;9.97;;;;;;;-0.04;72.21;99205.96;2175219;82;21288;-79
2021/03/18 06:49:40;;;;;;;18.50;13.00;;;;;;;0.08;71.98;99195.96;2175778;81;21157;-79
2021/03/18 06:52:41;;;;;;;14.40;10.63;;;;;;;0.16;71.84;99190.88;2176084;82;21114;-79
2021/03/18 06:55:44;;;;;;;24.50;10.50;;;;;;;0.15;71.74;99205.78;2175346;82;21312;-80
2021/03/18 06:58:46;;;;;;;15.37;11.90;;;;;;;0.10;71.78;99202.95;2175732;82;21820;-80
2021/03/18 07:01:48;;;;;;;21.67;14.53;;;;;;;0.15;72.16;99196.41;2175820;82;21729;-79
2021/03/18 07:04:49;;;;;;;25.83;12.87;;;;;;;0.30;72.03;99199.86;2176264;82;21284;-79
2021/03/18 07:07:50;;;;;;;19.67;13.03;;;;;;;0.52;71.54;99192.09;2175943;82;21255;-79
2021/03/18 07:10:51;;;;;;;15.70;10.57;;;;;;;0.53;70.83;99193.45;2176636;82;21377;-80
2021/03/18 07:13:53;;;;;;;18.57;13.00;;;;;;;0.42;70.80;99193.65;2175990;82;21245;-79
2021/03/18 07:16:54;;;;;;;26.93;16.80;;;;;;;0.42;71.12;99197.10;2176005;81;21158;-78
2021/03/18 07:19:55;;;;;;;73.77;31.73;;;;;;;0.52;70.83;99191.69;2174934;82;21137;-79
2021/03/18 07:22:56;;;;;;;35.90;15.77;;;;;;;0.77;69.93;99184.06;2175957;82;21098;-80
2021/03/18 07:25:58;;;;;;;24.30;14.37;;;;;;;0.99;69.30;99191.30;2176604;82;21276;-80
2021/03/18 07:28:59;;;;;;;19.10;14.33;;;;;;;1.00;69.61;99193.08;2176626;82;21259;-80
2021/03/18 07:32:00;;;;;;;23.20;14.73;;;;;;;0.97;69.75;99189.94;2176331;82;21102;-80
2021/03/18 07:35:01;;;;;;;35.03;18.03;;;;;;;0.97;69.10;99186.48;2175514;82;21267;-82
2021/03/18 07:38:02;;;;;;;27.43;12.63;;;;;;;1.00;69.36;99183.67;2175876;82;21872;-81
2021/03/18 07:41:03;;;;;;;25.60;14.37;;;;;;;1.08;69.29;99182.80;2176300;82;21284;-81
2021/03/18 07:44:04;;;;;;;31.00;16.13;;;;;;;1.12;68.74;99184.73;2176361;82;21150;-79
2021/03/18 07:47:05;;;;;;;27.93;15.20;;;;;;;1.05;68.98;99182.23;2175335;82;21153;-81
2021/03/18 07:50:06;;;;;;;31.33;15.60;;;;;;;1.10;68.94;99175.66;2175432;82;21141;-80
2021/03/18 07:53:07;;;;;;;17.90;12.90;;;;;;;1.20;68.95;99175.75;2175882;82;21256;-80
2021/03/18 07:56:08;;;;;;;39.30;17.70;;;;;;;1.20;68.48;99173.18;2175395;82;21293;-80
2021/03/18 07:59:09;;;;;;;38.00;19.57;;;;;;;1.21;68.94;99165.55;2175071;82;21135;-80
2021/03/18 08:02:10;;;;;;;46.43;21.07;;;;;;;1.35;68.41;99173.11;2174826;82;21600;-81
2021/03/18 08:05:11;;;;;;;23.83;12.10;;;;;;;1.34;68.32;99181.63;2176104;82;21125;-80
2021/03/18 08:08:12;;;;;;;23.43;11.63;;;;;;;1.18;68.67;99180.81;2176772;82;21229;-79
2021/03/18 08:11:15;;;;;;;22.73;14.27;;;;;;;1.06;68.39;99185.70;2176572;82;21113;-80
2021/03/18 08:14:16;;;;;;;19.17;13.07;;;;;;;0.99;68.68;99184.48;2175975;82;21712;-79
2021/03/18 08:17:18;;;;;;;17.53;12.63;;;;;;;1.14;68.83;99172.85;2175541;82;21459;-80
2021/03/18 08:20:19;;;;;;;21.17;13.43;;;;;;;1.16;68.20;99174.70;2175860;82;21565;-80
2021/03/18 08:23:20;;;;;;;19.17;14.47;;;;;;;1.12;68.27;99179.59;2175769;82;21138;-81
2021/03/18 08:26:21;;;;;;;31.43;16.80;;;;;;;0.96;68.91;99177.88;2176593;82;21149;-81
2021/03/18 08:29:22;;;;;;;30.80;17.20;;;;;;;0.87;69.24;99176.09;2175507;82;21248;-81
2021/03/18 08:32:24;;;;;;;27.00;19.10;;;;;;;0.70;69.64;99179.39;2174312;82;21342;-78
2021/03/18 08:35:26;;;;;;;35.47;19.43;;;;;;;0.58;70.30;99182.16;2174493;82;21236;-77
2021/03/18 08:38:27;;;;;;;47.93;25.40;;;;;;;0.46;70.59;99184.03;2174275;82;21256;-80
2021/03/18 08:41:28;;;;;;;39.00;23.13;;;;;;;0.50;71.26;99187.27;2175255;82;21236;-81
2021/03/18 08:44:31;;;;;;;32.23;21.73;;;;;;;0.57;70.85;99187.70;2176016;82;21268;-82
2021/03/18 08:47:32;;;;;;;35.73;22.80;;;;;;;0.67;70.60;99194.63;2176300;82;21194;-81
2021/03/18 08:50:33;;;;;;;47.60;28.47;;;;;;;0.69;70.03;99184.04;2175323;82;21153;-81
2021/03/18 08:53:34;;;;;;;50.63;30.53;;;;;;;0.69;70.03;99184.04;2174755;82;21682;-80
2021/03/18 08:56:36;;;;;;;70.53;35.43;;;;;;;0.61;69.77;99180.64;2175228;82;21295;-80
2021/03/18 08:59:37;;;;;;;48.57;30.80;;;;;;;0.71;70.10;99179.88;2175302;82;21248;-80
2021/03/18 09:02:38;;;;;;;51.17;31.93;;;;;;;0.95;69.29;99177.40;2174747;82;21126;-80
2021/03/18 09:05:39;;;;;;;39.43;26.70;;;;;;;1.08;68.91;99181.52;2173844;82;21252;-80
2021/03/18 09:08:42;;;;;;;34.23;23.00;;;;;;;1.23;67.78;99178.09;2174017;82;21126;-80
2021/03/18 09:11:43;;;;;;;24.77;18.67;;;;;;;1.66;66.14;99171.34;2174155;82;21102;-79
2021/03/18 09:14:44;;;;;;;29.93;19.77;;;;;;;2.11;64.02;99166.39;2174971;82;21248;-80
2021/03/18 09:17:45;;;;;;;27.77;19.27;;;;;;;2.30;64.41;99167.30;2170355;81;21317;-80
2021/03/18 09:20:46;;;;;;;20.63;14.57;;;;;;;2.29;63.36;99165.13;2158135;82;21539;-80
2021/03/18 09:23:47;;;;;;;28.37;19.40;;;;;;;2.13;61.99;99162.60;2157746;82;21468;-79
2021/03/18 09:26:49;;;;;;;37.23;21.60;;;;;;;1.94;63.35;99174.95;2157311;82;21755;-81
2021/03/18 09:29:50;;;;;;;49.83;28.67;;;;;;;1.81;63.09;99172.16;2158101;82;21261;-81
2021/03/18 09:32:51;;;;;;;27.23;18.97;;;;;;;1.77;63.52;99169.35;2157949;82;21253;-79
2021/03/18 09:35:52;;;;;;;31.33;21.97;;;;;;;1.75;63.28;99170.56;2156684;82;21296;-79
2021/03/18 09:38:53;;;;;;;35.83;20.67;;;;;;;1.87;63.84;99166.44;2158093;82;21149;-80
2021/03/18 09:41:55;;;;;;;341.60;34.13;;;;;;;2.14;63.04;99163.08;2158565;82;21432;-80
2021/03/18 09:44:57;;;;;;;25.37;18.00;;;;;;;2.42;62.17;99155.90;2158085;82;21122;-81
2021/03/18 09:47:58;;;;;;;21.30;15.27;;;;;;;2.72;61.75;99155.64;2157852;82;21859;-80
2021/03/18 09:50:59;;;;;;;17.30;14.13;;;;;;;2.87;59.77;99155.95;2157721;82;21720;-80
2021/03/18 09:54:01;;;;;;;18.50;12.20;;;;;;;2.83;58.49;99158.31;2157447;82;21134;-79
2021/03/18 09:57:02;;;;;;;14.43;12.50;;;;;;;2.64;57.79;99163.41;2157294;82;21328;-79
2021/03/18 10:00:03;;;;;;;20.80;13.10;;;;;;;2.52;58.61;99158.11;2157720;82;21157;-80
2021/03/18 10:03:04;;;;;;;19.47;14.77;;;;;;;2.55;59.05;99159.55;2158917;82;21630;-79
2021/03/18 10:06:05;;;;;;;21.73;14.73;;;;;;;2.61;59.38;99163.27;2157973;82;21155;-79
2021/03/18 10:09:06;;;;;;;28.57;15.90;;;;;;;2.48;59.67;99165.22;2158393;82;21256;-78
2021/03/18 10:12:07;;;;;;;20.13;14.90;;;;;;;2.54;59.23;99166.80;2158500;82;21142;-80
2021/03/18 10:15:10;;;;;;;23.90;15.37;;;;;;;2.78;58.97;99154.64;2158812;82;21881;-79
2021/03/18 10:18:11;;;;;;;17.57;11.60;;;;;;;3.03;58.80;99154.97;2163490;81;21315;-80
2021/03/18 10:21:12;;;;;;;27.17;16.30;;;;;;;3.26;58.08;99149.98;2175747;82;21268;-80
2021/03/18 10:24:13;;;;;;;16.70;11.30;;;;;;;3.40;57.22;99146.32;2175749;82;21174;-80
2021/03/18 10:27:15;;;;;;;18.70;12.60;;;;;;;3.43;56.72;99141.30;2175891;82;21560;-80
2021/03/18 10:30:16;;;;;;;14.80;9.80;;;;;;;3.56;55.60;99150.09;2176452;82;21126;-80
2021/03/18 10:33:17;;;;;;;20.83;16.17;;;;;;;3.56;54.12;99142.75;2175701;81;21321;-80
2021/03/18 10:36:18;;;;;;;16.03;12.93;;;;;;;3.46;55.46;99138.44;2175761;82;21982;-80
2021/03/18 10:39:19;;;;;;;15.40;11.03;;;;;;;3.49;55.79;99139.02;2176368;82;21118;-80
2021/03/18 10:42:20;;;;;;;16.37;11.13;;;;;;;3.33;56.23;99141.30;2176127;82;21256;-80
2021/03/18 10:45:23;;;;;;;13.87;11.03;;;;;;;3.13;55.15;99139.51;2176453;82;21333;-82
2021/03/18 10:48:24;;;;;;;29.77;16.83;;;;;;;2.97;55.77;99130.19;2176246;82;21312;-80
2021/03/18 10:51:25;;;;;;;21.03;13.67;;;;;;;2.99;56.32;99132.43;2175549;82;21114;-80
2021/03/18 10:54:26;;;;;;;28.90;13.60;;;;;;;3.15;56.25;99127.16;2175639;82;21520;-80
2021/03/18 10:57:27;;;;;;;23.40;14.47;;;;;;;3.20;55.89;99131.23;2176853;82;21166;-81
2021/03/18 11:00:28;;;;;;;23.83;14.03;;;;;;;3.16;56.20;99125.05;2176517;82;21432;-80
2021/03/18 11:03:29;;;;;;;15.03;12.10;;;;;;;3.28;56.24;99118.27;2175541;82;21094;-80
2021/03/18 11:06:30;;;;;;;13.23;11.57;;;;;;;3.37;55.57;99119.09;2174612;82;21122;-80
2021/03/18 11:09:31;;;;;;;303.93;25.67;;;;;;;3.52;56.07;99117.22;2174964;82;21272;-80
2021/03/18 11:12:32;;;;;;;13.53;11.30;;;;;;;3.76;56.00;99114.81;2175225;82;21149;-79
2021/03/18 11:15:33;;;;;;;16.37;10.23;;;;;;;4.04;54.83;99107.81;2176132;82;21503;-80
2021/03/18 11:18:34;;;;;;;28.50;11.27;;;;;;;4.13;53.54;99109.48;2169421;82;21289;-80
2021/03/18 11:21:35;;;;;;;13.07;10.90;;;;;;;4.07;53.14;99101.48;2159617;82;21639;-79
2021/03/18 11:24:37;;;;;;;31.73;13.93;;;;;;;4.09;53.25;99099.84;2159064;82;21139;-81
2021/03/18 11:27:38;;;;;;;12.10;9.27;;;;;;;4.00;52.61;99099.05;2159158;82;21122;-80
2021/03/18 11:30:40;;;;;;;9.63;8.67;;;;;;;3.99;53.53;99101.16;2159803;82;21249;-80
2021/03/18 11:33:41;;;;;;;11.70;9.10;;;;;;;4.05;52.75;99097.95;2160376;82;21134;-79
2021/03/18 11:36:42;;;;;;;13.20;9.70;;;;;;;3.98;53.81;99098.52;2159140;82;21293;-79
2021/03/18 11:39:43;;;;;;;13.10;10.17;;;;;;;3.84;53.38;99100.11;2157837;82;21143;-78
2021/03/18 11:42:44;;;;;;;18.00;10.67;;;;;;;3.64;53.73;99098.38;2156890;82;21257;-78
2021/03/18 11:45:45;;;;;;;10.73;9.30;;;;;;;3.62;54.11;99094.86;2156783;82;21831;-77
2021/03/18 11:48:47;;;;;;;12.90;10.37;;;;;;;3.74;54.42;99086.75;2158023;82;21154;-80
2021/03/18 11:51:48;;;;;;;11.40;9.63;;;;;;;3.83;54.26;99078.98;2158922;82;21147;-79
2021/03/18 11:54:50;;;;;;;14.50;10.13;;;;;;;4.02;52.45;99089.67;2158757;82;21225;-80
2021/03/18 11:57:54;;;;;;;8.97;8.03;;;;;;;4.00;52.41;99080.09;2159244;82;21292;-79
2021/03/18 12:00:54;;;;;;;11.17;7.80;;;;;;;3.89;51.91;99073.60;2158044;82;21265;-80
2021/03/18 12:03:56;;;;;;;13.30;9.67;;;;;;;3.94;52.48;99064.34;2158573;82;21261;-78
2021/03/18 12:06:57;;;;;;;9.57;8.03;;;;;;;4.03;52.61;99060.44;2159035;82;21142;-79
2021/03/18 12:09:58;;;;;;;15.13;8.30;;;;;;;4.26;51.61;99065.23;2158350;82;21234;-79
2021/03/18 12:12:59;;;;;;;6.90;6.20;;;;;;;4.55;51.08;99054.78;2159188;82;21244;-80
2021/03/18 12:16:00;;;;;;;10.37;6.93;;;;;;;4.36;49.72;99053.59;2158643;82;21173;-80
2021/03/18 12:19:02;;;;;;;8.30;7.40;;;;;;;4.14;50.37;99055.70;2165239;81;21277;-79
2021/03/18 12:22:03;;;;;;;9.20;6.83;;;;;;;3.96;50.63;99045.92;2174681;81;21163;-79
2021/03/18 12:25:04;;;;;;;9.07;7.50;;;;;;;3.80;50.87;99053.03;2175369;81;21134;-78
2021/03/18 12:28:05;;;;;;;9.60;7.23;;;;;;;3.89;51.50;99045.20;2175730;81;21253;-80
2021/03/18 12:31:07;;;;;;;14.70;7.73;;;;;;;4.08;51.19;99042.13;2175761;82;21634;-78
2021/03/18 12:34:08;;;;;;;7.90;5.93;;;;;;;4.18;49.63;99042.50;2175615;81;21094;-79
2021/03/18 12:37:10;;;;;;;6.30;4.93;;;;;;;4.19;49.58;99041.67;2175209;81;21295;-82
2021/03/18 12:40:11;;;;;;;6.27;4.83;;;;;;;4.22;46.08;99039.22;2175748;81;21180;-79
2021/03/18 12:43:12;;;;;;;5.93;5.00;;;;;;;4.29;45.04;99030.88;2174946;81;21245;-80
2021/03/18 12:46:13;;;;;;;7.70;5.60;;;;;;;4.29;45.25;99040.81;2175300;81;21265;-80
2021/03/18 12:49:14;;;;;;;6.03;4.47;;;;;;;4.41;45.04;99024.52;2174740;81;21275;-80
2021/03/18 12:52:15;;;;;;;5.27;4.77;;;;;;;4.51;44.59;99024.87;2174735;81;21464;-80
2021/03/18 12:55:16;;;;;;;8.00;5.80;;;;;;;4.51;44.42;99018.00;2175434;81;21519;-79
2021/03/18 12:58:17;;;;;;;326.13;24.07;;;;;;;4.56;44.49;99014.30;2173878;81;21306;-80
2021/03/18 13:01:18;;;;;;;7.03;5.23;;;;;;;4.52;44.85;99013.72;2174056;82;21162;-80
2021/03/18 13:04:19;;;;;;;6.37;5.00;;;;;;;4.47;42.58;99017.01;2173161;81;21252;-80
2021/03/18 13:07:20;;;;;;;4.30;3.90;;;;;;;4.37;42.84;99012.72;2170403;81;21283;-79
2021/03/18 13:10:22;;;;;;;12.43;8.77;;;;;;;4.26;44.27;99003.22;2171247;81;21114;-78
2021/03/18 13:13:23;;;;;;;10.13;7.10;;;;;;;4.39;44.12;98997.73;2173267;81;21122;-80
2021/03/18 13:16:24;;;;;;;4.97;3.97;;;;;;;4.59;44.71;98996.32;2174176;82;21335;-80
2021/03/18 13:19:25;;;;;;;4.40;3.97;;;;;;;4.74;43.90;98987.84;2165816;81;21139;-81
2021/03/18 13:22:26;;;;;;;8.47;6.27;;;;;;;4.89;41.99;98991.41;2157901;82;21257;-79
2021/03/18 13:25:27;;;;;;;8.97;5.40;;;;;;;4.90;42.22;98995.34;2157772;82;21354;-79
2021/03/18 13:28:30;;;;;;;13.90;7.73;;;;;;;4.91;42.53;98986.75;2157807;82;21245;-80
2021/03/18 13:31:31;;;;;;;24.27;13.00;;;;;;;4.82;41.43;98992.89;2156968;82;21126;-80
2021/03/18 13:34:32;;;;;;;13.80;8.20;;;;;;;4.64;41.82;98984.03;2158131;82;21273;-82
2021/03/18 13:37:33;;;;;;;7.70;5.90;;;;;;;4.51;42.92;98987.40;2157669;82;21313;-80
2021/03/18 13:40:34;;;;;;;14.07;6.87;;;;;;;4.32;43.03;98984.08;2158597;82;21131;-80
2021/03/18 13:43:35;;;;;;;46.50;9.13;;;;;;;4.27;44.00;98979.14;2157822;82;21151;-79
2021/03/18 13:46:36;;;;;;;8.73;7.23;;;;;;;4.40;44.23;98981.41;2158502;82;21636;-79
2021/03/18 13:49:37;;;;;;;42.63;24.00;;;;;;;4.45;44.18;98976.00;2159226;82;21277;-79
2021/03/18 13:52:39;;;;;;;18.60;10.30;;;;;;;4.50;44.01;98971.42;2158147;82;21276;-79
2021/03/18 13:55:40;;;;;;;23.50;15.30;;;;;;;4.59;44.33;98971.77;2158312;82;21300;-79
2021/03/18 13:58:42;;;;;;;7.57;6.20;;;;;;;4.69;43.88;98973.86;2158102;82;21194;-79
2021/03/18 14:01:43;;;;;;;9.10;6.77;;;;;;;4.73;44.81;98958.52;2157645;82;21257;-80
2021/03/18 14:04:44;;;;;;;9.30;7.53;;;;;;;4.73;45.62;98968.86;2156373;82;21256;-78
2021/03/18 14:07:45;;;;;;;19.17;12.33;;;;;;;4.67;45.14;98958.70;2155571;82;21257;-78